Time;durP1;ratioP1;P1;durP2;ratioP2;P2;SDS_P1;SDS_P2;PMS_P1;PMS_P2;Temp;Humidity;BMP_temperature;BMP_pressure;BME280_temperature;BME280_humidity;BME280_pressure;Samples;Min_cycle;Max_cycle;Signal;HPM_P1;HPM_P2
2023/09/23 00:01:32;;;;;;;5.95;2.60;;;12.80;99.90;;;;;;5052160;28;20039;-76
2023/09/23 00:03:58;;;;;;;8.18;4.72;;;12.80;99.90;;;;;;5050528;28;21106;-77
2023/09/23 00:06:24;;;;;;;8.10;3.50;;;12.80;99.90;;;;;;5055068;28;20032;-77
2023/09/23 00:08:50;;;;;;;8.70;3.92;;;12.90;99.90;;;;;;5058858;28;20037;-77
2023/09/23 00:11:16;;;;;;;22.77;5.05;;;12.80;99.90;;;;;;5058857;28;20017;-77
2023/09/23 00:13:42;;;;;;;11.88;5.32;;;12.80;99.90;;;;;;5069203;28;20037;-77
2023/09/23 00:16:10;;;;;;;8.63;4.25;;;12.60;99.90;;;;;;5043045;28;20047;-77
2023/09/23 00:18:36;;;;;;;10.75;4.45;;;12.60;99.90;;;;;;5059521;28;20140;-78
2023/09/23 00:21:05;;;;;;;6.73;3.53;;;12.50;99.90;;;;;;5058623;28;20165;-77
2023/09/23 00:23:34;;;;;;;6.97;3.00;;;12.30;99.90;;;;;;5047098;28;20498;-75
2023/09/23 00:26:01;;;;;;;7.72;3.33;;;12.30;99.90;;;;;;5048342;28;20024;-74
2023/09/23 00:28:28;;;;;;;;;;;12.30;99.90;;;;;;5062266;28;20029;-74
2023/09/23 00:31:01;;;;;;;4.00;1.98;;;12.40;99.90;;;;;;5056548;28;19970;-75
2023/09/23 00:33:30;;;;;;;14.93;2.88;;;12.30;99.90;;;;;;5050202;28;20032;-76
2023/09/23 00:35:56;;;;;;;30.52;3.85;;;12.20;99.90;;;;;;5055892;28;20483;-75
2023/09/23 00:38:22;;;;;;;94.10;4.93;;;12.20;99.90;;;;;;5048453;28;20027;-75
2023/09/23 00:40:48;;;;;;;10.33;4.30;;;12.30;99.90;;;;;;5055379;28;20376;-75
2023/09/23 00:43:16;;;;;;;8.27;3.95;;;12.30;99.90;;;;;;5058869;28;20036;-75
2023/09/23 00:45:48;;;;;;;14.18;3.55;;;12.20;99.90;;;;;;5046481;28;20025;-74
2023/09/23 00:48:20;;;;;;;13.30;3.30;;;12.20;99.90;;;;;;5048308;28;20409;-75
2023/09/23 00:50:47;;;;;;;6.82;3.17;;;12.40;99.90;;;;;;5049451;28;20033;-74
2023/09/23 00:53:13;;;;;;;5.07;2.90;;;12.50;99.90;;;;;;5055040;28;20383;-74
2023/09/23 00:55:42;;;;;;;12.82;3.90;;;12.30;99.90;;;;;;5049845;28;20044;-75
2023/09/23 00:58:14;;;;;;;14.00;5.63;;;12.40;99.90;;;;;;5070657;28;20405;-75
2023/09/23 01:00:43;;;;;;;16.55;3.92;;;12.40;99.90;;;;;;5055656;28;20696;-75
2023/09/23 01:03:12;;;;;;;12.40;4.03;;;12.60;99.90;;;;;;5056660;28;20037;-74
2023/09/23 01:05:39;;;;;;;6.40;3.70;;;12.60;99.90;;;;;;5039634;28;20116;-74
2023/09/23 01:08:20;;;;;;;7.60;3.60;;;12.50;99.90;;;;;;5058399;28;20028;-73
2023/09/23 01:10:48;;;;;;;6.28;2.72;;;12.40;99.90;;;;;;5052341;28;20063;-75
2023/09/23 01:13:23;;;;;;;8.25;2.67;;;12.40;99.90;;;;;;5069129;28;20059;-74
2023/09/23 01:15:49;;;;;;;6.15;1.92;;;12.40;99.90;;;;;;5048105;28;20517;-74
2023/09/23 01:18:15;;;;;;;;;;;12.40;99.90;;;;;;5056460;28;20040;-74
2023/09/23 01:20:45;;;;;;;8.90;1.63;;;12.40;99.90;;;;;;5054134;28;19916;-74
2023/09/23 01:23:12;;;;;;;5.88;1.85;;;12.50;99.90;;;;;;5056303;28;20094;-72
2023/09/23 01:25:38;;;;;;;5.93;2.10;;;12.50;99.90;;;;;;5044764;28;20028;-74
2023/09/23 01:28:08;;;;;;;8.50;2.38;;;12.40;99.90;;;;;;5060259;28;20034;-74
2023/09/23 01:30:35;;;;;;;6.65;1.95;;;12.40;99.90;;;;;;5060976;28;20091;-74
2023/09/23 01:33:05;;;;;;;5.80;2.08;;;12.50;99.90;;;;;;5048056;28;20072;-74
2023/09/23 01:35:31;;;;;;;12.25;1.40;;;12.40;99.90;;;;;;5051912;28;20028;-74
2023/09/23 01:37:58;;;;;;;6.63;1.77;;;12.50;99.90;;;;;;5045145;28;20053;-74
2023/09/23 01:40:23;;;;;;;;;;;12.50;99.90;;;;;;5049957;28;20031;-75
2023/09/23 01:42:49;;;;;;;5.70;1.90;;;12.40;99.90;;;;;;5054569;28;19921;-74
2023/09/23 01:45:15;;;;;;;5.70;1.77;;;12.30;99.90;;;;;;5056755;28;20029;-74
2023/09/23 01:47:41;;;;;;;8.10;1.58;;;12.20;99.90;;;;;;5052138;28;20037;-74
2023/09/23 01:50:10;;;;;;;8.60;1.83;;;12.10;99.90;;;;;;5055276;28;20035;-73
2023/09/23 01:52:37;;;;;;;5.65;2.13;;;11.90;99.90;;;;;;5047029;28;20025;-75
2023/09/23 01:55:05;;;;;;;7.30;1.63;;;12.00;99.90;;;;;;5066394;28;20020;-74
2023/09/23 01:57:34;;;;;;;6.50;1.60;;;11.90;99.90;;;;;;5051056;28;20082;-73
2023/09/23 02:00:01;;;;;;;10.30;1.90;;;12.00;99.90;;;;;;5053915;28;20110;-74
2023/09/23 02:02:27;;;;;;;5.53;1.40;;;12.00;99.90;;;;;;5053732;28;20033;-73
2023/09/23 02:04:53;;;;;;;5.20;1.55;;;11.90;99.90;;;;;;5052399;28;20028;-73
2023/09/23 02:07:19;;;;;;;4.28;1.50;;;11.80;99.90;;;;;;5042217;28;20525;-74
2023/09/23 02:09:45;;;;;;;3.23;1.43;;;12.00;99.90;;;;;;5055247;28;20040;-74
2023/09/23 02:12:12;;;;;;;10.68;1.58;;;11.90;99.90;;;;;;5055464;28;20044;-74
2023/09/23 02:14:40;;;;;;;13.07;1.75;;;11.90;99.90;;;;;;5053792;28;20040;-74
2023/09/23 02:17:05;;;;;;;6.97;2.10;;;12.00;99.90;;;;;;5050460;28;20673;-73
2023/09/23 02:19:31;;;;;;;8.60;2.17;;;11.90;99.90;;;;;;5063874;28;20055;-73
2023/09/23 02:21:56;;;;;;;3.60;1.87;;;11.90;99.90;;;;;;5053275;28;20040;-73
2023/09/23 02:24:23;;;;;;;7.67;1.73;;;11.90;99.90;;;;;;5045655;28;20025;-74
2023/09/23 02:26:49;;;;;;;1.77;1.45;;;11.80;99.90;;;;;;5045473;28;20148;-74
2023/09/23 02:29:15;;;;;;;3.83;1.97;;;11.70;99.90;;;;;;5047732;28;20587;-73
2023/09/23 02:31:49;;;;;;;8.48;2.70;;;11.80;99.90;;;;;;5056616;28;20310;-73
2023/09/23 02:34:16;;;;;;;7.18;2.33;;;11.60;99.90;;;;;;5038909;28;20498;-71
2023/09/23 02:36:43;;;;;;;5.68;2.28;;;11.70;99.90;;;;;;5049924;28;20029;-73
2023/09/23 02:39:16;;;;;;;9.07;1.92;;;11.70;99.90;;;;;;5051160;28;20556;-74
2023/09/23 02:41:47;;;;;;;8.00;2.08;;;11.80;99.90;;;;;;5052718;28;20042;-74
2023/09/23 02:44:22;;;;;;;11.35;2.40;;;11.80;99.90;;;;;;5048260;28;20036;-74
2023/09/23 02:46:49;;;;;;;4.75;2.72;;;11.90;99.90;;;;;;5048905;28;20031;-74
2023/09/23 02:49:15;;;;;;;;;;;11.80;99.90;;;;;;5068700;28;20024;-73
2023/09/23 02:51:42;;;;;;;8.50;2.58;;;11.70;99.90;;;;;;5069775;28;19940;-73
2023/09/23 02:54:09;;;;;;;11.65;2.90;;;11.70;99.90;;;;;;5046973;28;20029;-74
2023/09/23 02:56:34;;;;;;;;;;;11.70;99.90;;;;;;5063518;28;20381;-73
2023/09/23 02:59:04;;;;;;;14.18;2.72;;;11.60;99.90;;;;;;5044411;28;20015;-74
2023/09/23 03:01:30;;;;;;;7.18;2.33;;;11.70;99.90;;;;;;5052582;28;20094;-73
2023/09/23 03:03:56;;;;;;;9.55;2.83;;;11.70;99.90;;;;;;5051012;28;20120;-73
2023/09/23 03:06:25;;;;;;;7.40;2.47;;;11.70;99.90;;;;;;5053975;28;20115;-73
2023/09/23 03:08:54;;;;;;;14.40;3.13;;;11.70;99.90;;;;;;5065041;28;20057;-74
2023/09/23 03:11:20;;;;;;;14.23;2.63;;;11.70;99.90;;;;;;5038869;28;20029;-72
2023/09/23 03:13:46;;;;;;;;;;;11.70;99.90;;;;;;5037804;28;20121;-73
2023/09/23 03:16:18;;;;;;;13.25;4.85;;;11.80;99.90;;;;;;5053502;28;20356;-73
2023/09/23 03:19:09;;;;;;;5.82;2.13;;;11.80;99.90;;;;;;5052705;28;20374;-74
2023/09/23 03:21:35;;;;;;;11.70;2.30;;;11.90;99.90;;;;;;5051205;28;20064;-74
2023/09/23 03:24:01;;;;;;;11.53;2.83;;;11.90;99.90;;;;;;5048931;28;20068;-72
2023/09/23 03:26:27;;;;;;;16.97;2.60;;;11.80;99.90;;;;;;5036379;28;20032;-72
2023/09/23 03:28:53;;;;;;;3.65;2.10;;;11.90;99.90;;;;;;5045052;28;20083;-73
2023/09/23 03:31:18;;;;;;;3.97;1.67;;;11.80;99.90;;;;;;5052770;28;20041;-73
2023/09/23 03:33:44;;;;;;;7.65;2.40;;;11.70;99.90;;;;;;5053573;28;20638;-73
2023/09/23 03:36:15;;;;;;;14.55;2.58;;;11.60;99.90;;;;;;5048563;28;20367;-73
2023/09/23 03:38:42;;;;;;;8.48;2.60;;;11.60;99.90;;;;;;5036017;28;20024;-72
2023/09/23 03:41:10;;;;;;;4.82;2.42;;;11.60;99.90;;;;;;5050482;28;20036;-72
2023/09/23 03:43:35;;;;;;;5.25;2.47;;;11.50;99.90;;;;;;5054531;28;20039;-73
2023/09/23 03:46:02;;;;;;;2.60;2.00;;;11.50;99.90;;;;;;5042382;28;20132;-72
2023/09/23 03:48:28;;;;;;;8.25;2.53;;;11.60;99.90;;;;;;5041855;28;20060;-73
2023/09/23 03:50:54;;;;;;;10.93;3.20;;;11.70;99.90;;;;;;5052087;28;20591;-72
2023/09/23 03:53:23;;;;;;;4.55;2.22;;;11.70;99.90;;;;;;5042983;28;20032;-72
2023/09/23 03:55:52;;;;;;;6.10;2.47;;;11.70;99.90;;;;;;5037928;28;20403;-72
2023/09/23 03:58:17;;;;;;;8.23;2.42;;;11.70;99.90;;;;;;5044478;28;20410;-72
2023/09/23 04:00:44;;;;;;;7.10;2.60;;;11.70;99.90;;;;;;5053091;28;20029;-73
2023/09/23 04:03:13;;;;;;;9.00;2.47;;;11.70;99.90;;;;;;5051368;28;20044;-72
2023/09/23 04:05:39;;;;;;;9.63;2.70;;;11.70;99.90;;;;;;5052378;28;20029;-72
2023/09/23 04:08:05;;;;;;;5.60;2.67;;;11.60;99.90;;;;;;5041898;28;20024;-73
2023/09/23 04:10:35;;;;;;;4.35;2.30;;;11.50;99.90;;;;;;5046090;28;20517;-73
2023/09/23 04:13:01;;;;;;;4.10;2.67;;;11.60;99.90;;;;;;5049757;28;20037;-72
2023/09/23 04:15:27;;;;;;;5.33;1.60;;;11.50;99.90;;;;;;5042546;28;20491;-72
2023/09/23 04:17:52;;;;;;;5.13;1.90;;;11.60;99.90;;;;;;5061452;28;20024;-72
2023/09/23 04:20:18;;;;;;;5.43;1.63;;;11.50;99.90;;;;;;5047164;28;20517;-73
2023/09/23 04:22:46;;;;;;;3.50;1.70;;;11.50;99.90;;;;;;5052814;28;20033;-73
2023/09/23 04:25:15;;;;;;;3.45;1.77;;;11.40;99.90;;;;;;5045975;28;20079;-72
2023/09/23 04:27:41;;;;;;;2.90;1.55;;;11.50;99.90;;;;;;5043164;28;20586;-73
2023/09/23 04:30:11;;;;;;;2.73;1.50;;;11.50;99.90;;;;;;5047265;28;20090;-73
2023/09/23 04:32:41;;;;;;;1.98;1.15;;;11.50;99.90;;;;;;5042970;28;20402;-72
2023/09/23 04:35:08;;;;;;;7.47;1.80;;;11.50;99.90;;;;;;5043335;28;20090;-72
2023/09/23 04:37:37;;;;;;;2.83;1.50;;;11.60;99.90;;;;;;5046223;28;20510;-73
2023/09/23 04:40:11;;;;;;;7.43;2.25;;;11.60;99.90;;;;;;5042319;28;20044;-72
2023/09/23 04:42:42;;;;;;;3.08;1.45;;;11.60;99.90;;;;;;5038652;28;20033;-73
2023/09/23 04:45:09;;;;;;;9.23;1.88;;;11.70;99.90;;;;;;5049959;28;20052;-73
2023/09/23 04:47:35;;;;;;;5.65;1.67;;;11.70;99.90;;;;;;5046438;28;20025;-73
2023/09/23 04:50:04;;;;;;;6.20;1.67;;;11.70;99.90;;;;;;5051430;28;20539;-73
2023/09/23 04:52:32;;;;;;;6.22;1.63;;;11.70;99.90;;;;;;5038055;28;20576;-73
2023/09/23 04:54:57;;;;;;;6.10;1.48;;;11.60;99.90;;;;;;5046046;28;20040;-73
2023/09/23 04:57:23;;;;;;;8.07;1.80;;;11.50;99.90;;;;;;5053780;28;20041;-73
2023/09/23 04:59:49;;;;;;;7.93;1.60;;;11.40;99.90;;;;;;5048294;28;20037;-72
2023/09/23 05:02:18;;;;;;;5.75;1.35;;;11.40;99.90;;;;;;5036783;28;20520;-72
2023/09/23 05:04:45;;;;;;;4.22;1.95;;;11.30;99.90;;;;;;5042066;28;20036;-73
2023/09/23 05:07:12;;;;;;;10.75;1.92;;;11.30;99.90;;;;;;5053896;28;20033;-72
2023/09/23 05:09:39;;;;;;;10.90;1.88;;;11.20;99.90;;;;;;5040651;28;20024;-73
2023/09/23 05:12:10;;;;;;;4.90;2.60;;;11.20;99.90;;;;;;5038776;28;20042;-72
2023/09/23 05:14:36;;;;;;;8.85;2.92;;;11.20;99.90;;;;;;5038317;28;20036;-73
2023/09/23 05:17:05;;;;;;;4.57;2.80;;;11.20;99.90;;;;;;5045616;28;20092;-73
2023/09/23 05:19:34;;;;;;;4.63;2.13;;;11.20;99.90;;;;;;5048479;28;20378;-73
2023/09/23 05:22:03;;;;;;;5.50;2.45;;;11.10;99.90;;;;;;5045053;28;20123;-73
2023/09/23 05:24:29;;;;;;;7.60;1.77;;;11.20;99.90;;;;;;5048689;28;20025;-73
2023/09/23 05:26:55;;;;;;;10.53;3.07;;;11.20;99.90;;;;;;5044238;28;20094;-73
2023/09/23 05:29:22;;;;;;;6.60;2.58;;;11.10;99.90;;;;;;5054480;28;20043;-72
2023/09/23 05:31:49;;;;;;;8.98;2.42;;;11.10;99.90;;;;;;5037907;28;20067;-72
2023/09/23 05:34:15;;;;;;;5.55;2.35;;;11.10;99.90;;;;;;5052056;28;20035;-72
2023/09/23 05:36:42;;;;;;;12.85;2.65;;;11.20;99.90;;;;;;5044165;28;20025;-72
2023/09/23 05:39:14;;;;;;;4.22;2.40;;;11.20;99.90;;;;;;5048673;28;20100;-72
2023/09/23 05:41:40;;;;;;;5.18;2.60;;;11.20;99.90;;;;;;5040930;28;20132;-74
2023/09/23 05:44:07;;;;;;;4.32;2.88;;;11.20;99.90;;;;;;5052533;28;20164;-72
2023/09/23 05:46:35;;;;;;;14.30;2.72;;;11.20;99.90;;;;;;5065710;28;20439;-73
2023/09/23 05:49:02;;;;;;;7.07;2.28;;;11.10;99.90;;;;;;5065586;28;20110;-73
2023/09/23 05:51:28;;;;;;;7.53;2.38;;;11.10;99.90;;;;;;5038770;28;20100;-72
2023/09/23 05:53:53;;;;;;;13.10;2.03;;;11.10;99.90;;;;;;5049749;28;20028;-73
2023/09/23 05:56:19;;;;;;;4.83;2.17;;;11.20;99.90;;;;;;5056625;28;20032;-71
2023/09/23 05:58:46;;;;;;;13.03;2.43;;;11.20;99.90;;;;;;5047047;28;20033;-72
2023/09/23 06:01:12;;;;;;;4.25;2.10;;;11.30;99.90;;;;;;5050260;28;20560;-72
2023/09/23 06:03:41;;;;;;;2.92;1.83;;;11.30;99.90;;;;;;5035974;28;20048;-73
2023/09/23 06:06:06;;;;;;;7.97;1.90;;;11.30;99.90;;;;;;5048101;28;20044;-72
2023/09/23 06:08:32;;;;;;;35.27;3.13;;;11.30;99.90;;;;;;5051031;28;20493;-72
2023/09/23 06:11:10;;;;;;;7.30;2.17;;;11.40;99.90;;;;;;5037509;28;20017;-73
2023/09/23 06:13:36;;;;;;;7.57;2.40;;;11.40;99.90;;;;;;5047238;28;20098;-73
2023/09/23 06:16:05;;;;;;;5.43;1.67;;;11.40;99.90;;;;;;5048316;28;20052;-73
2023/09/23 06:18:33;;;;;;;6.72;2.20;;;11.40;99.90;;;;;;5048484;28;20412;-73
2023/09/23 06:21:03;;;;;;;10.10;2.30;;;11.40;99.90;;;;;;5041141;28;20113;-72
2023/09/23 06:23:30;;;;;;;4.20;2.08;;;11.40;99.90;;;;;;5065570;28;20559;-73
2023/09/23 06:25:58;;;;;;;;;;;11.50;99.90;;;;;;5047864;28;20037;-73
2023/09/23 06:28:24;;;;;;;8.32;2.10;;;11.50;99.90;;;;;;5044290;28;20392;-73
2023/09/23 06:30:50;;;;;;;7.63;2.03;;;11.70;99.90;;;;;;5051502;28;20040;-72
2023/09/23 06:33:15;;;;;;;4.43;2.22;;;11.90;99.90;;;;;;5052294;28;20110;-73
2023/09/23 06:35:41;;;;;;;11.63;2.13;;;12.00;99.90;;;;;;5067491;28;20041;-72
2023/09/23 06:38:07;;;;;;;11.00;2.00;;;12.20;99.90;;;;;;5051654;28;20033;-73
2023/09/23 06:40:33;;;;;;;7.33;1.90;;;12.20;99.90;;;;;;5043593;28;20033;-72
2023/09/23 06:42:59;;;;;;;3.95;1.98;;;12.30;99.90;;;;;;5056968;28;20045;-72
2023/09/23 06:45:24;;;;;;;8.02;1.95;;;12.40;99.90;;;;;;5050983;28;20033;-74
2023/09/23 06:47:50;;;;;;;8.53;4.50;;;12.40;99.90;;;;;;5043771;28;20835;-72
2023/09/23 06:50:17;;;;;;;12.97;3.80;;;12.20;99.90;;;;;;5037198;28;20406;-73
2023/09/23 06:52:43;;;;;;;6.75;2.90;;;12.10;99.90;;;;;;5049577;28;20493;-71
2023/09/23 06:55:11;;;;;;;6.18;3.35;;;12.00;99.90;;;;;;5045928;28;20029;-72
2023/09/23 06:57:37;;;;;;;6.70;3.28;;;12.10;99.90;;;;;;5040940;28;20517;-72
2023/09/23 07:00:06;;;;;;;5.78;3.67;;;12.10;99.90;;;;;;5042967;28;20033;-72
2023/09/23 07:02:32;;;;;;;11.07;4.15;;;12.20;99.90;;;;;;5049832;28;20029;-71
2023/09/23 07:04:58;;;;;;;11.70;3.83;;;12.10;99.90;;;;;;5051531;28;20543;-71
2023/09/23 07:07:23;;;;;;;8.43;3.90;;;12.40;99.90;;;;;;5052852;28;20041;-73
2023/09/23 07:09:49;;;;;;;5.83;3.80;;;12.90;99.90;;;;;;5051891;28;20147;-73
2023/09/23 07:12:15;;;;;;;5.47;3.70;;;12.90;99.90;;;;;;5051736;28;20066;-73
2023/09/23 07:14:41;;;;;;;4.77;3.13;;;13.00;99.90;;;;;;5049971;28;20864;-71
2023/09/23 07:17:06;;;;;;;10.88;4.20;;;12.90;99.90;;;;;;5051886;28;20036;-72
2023/09/23 07:19:33;;;;;;;6.17;4.10;;;13.00;99.90;;;;;;5048076;28;20405;-73
2023/09/23 07:21:59;;;;;;;5.75;3.53;;;13.00;99.90;;;;;;5049409;28;20043;-73
2023/09/23 07:24:29;;;;;;;5.43;3.20;;;13.00;99.90;;;;;;5049741;28;20028;-73
2023/09/23 07:26:58;;;;;;;6.00;3.78;;;13.00;99.90;;;;;;5046273;28;20025;-73
2023/09/23 07:29:24;;;;;;;17.55;3.45;;;13.10;99.90;;;;;;5048699;28;20040;-73
2023/09/23 07:31:52;;;;;;;15.02;3.42;;;13.30;99.90;;;;;;5066001;28;20418;-73
2023/09/23 07:34:17;;;;;;;7.35;3.40;;;13.50;99.90;;;;;;5051046;28;20045;-73
2023/09/23 07:36:43;;;;;;;4.47;2.53;;;13.60;99.90;;;;;;5041062;28;20037;-72
2023/09/23 07:39:10;;;;;;;8.60;2.70;;;13.60;99.90;;;;;;5041108;28;20033;-73
2023/09/23 07:41:37;;;;;;;6.88;3.08;;;13.70;99.90;;;;;;5054324;28;21100;-73
2023/09/23 07:44:03;;;;;;;;;;;13.90;99.90;;;;;;5052434;28;20036;-71
2023/09/23 07:46:29;;;;;;;7.50;3.08;;;14.00;99.90;;;;;;5059500;28;19913;-73
2023/09/23 07:48:55;;;;;;;5.15;2.75;;;14.10;99.90;;;;;;5041027;28;20444;-71
2023/09/23 07:51:20;;;;;;;11.00;2.40;;;14.30;99.90;;;;;;5044301;28;20767;-72
2023/09/23 07:53:46;;;;;;;5.85;2.53;;;14.30;99.90;;;;;;5056211;28;20400;-75
2023/09/23 07:56:12;;;;;;;7.28;2.30;;;14.30;99.90;;;;;;5058162;28;20445;-76
2023/09/23 07:58:38;;;;;;;6.15;2.70;;;14.30;99.90;;;;;;5046375;28;20029;-74
2023/09/23 08:01:04;;;;;;;5.10;2.63;;;14.40;99.90;;;;;;5041957;28;20036;-73
2023/09/23 08:03:30;;;;;;;7.07;2.40;;;14.40;99.90;;;;;;5033612;28;20060;-73
2023/09/23 08:05:55;;;;;;;3.75;2.15;;;14.40;99.90;;;;;;5047645;28;20054;-73
2023/09/23 08:08:21;;;;;;;7.55;2.47;;;14.60;99.90;;;;;;5047454;28;20529;-74
2023/09/23 08:10:50;;;;;;;3.97;2.30;;;14.50;99.90;;;;;;5043816;28;20028;-73
2023/09/23 08:13:17;;;;;;;7.15;2.50;;;14.50;99.90;;;;;;5051391;28;20081;-74
2023/09/23 08:15:42;;;;;;;11.68;2.42;;;15.00;99.90;;;;;;5045587;28;20036;-73
2023/09/23 08:18:08;;;;;;;4.20;2.27;;;16.50;99.90;;;;;;5039440;28;20403;-73
2023/09/23 08:20:34;;;;;;;2.93;1.93;;;16.60;99.90;;;;;;5046945;28;20676;-71
2023/09/23 08:23:00;;;;;;;9.00;2.38;;;17.80;98.60;;;;;;5056135;28;20121;-74
2023/09/23 08:25:25;;;;;;;8.40;2.60;;;18.60;98.60;;;;;;5040501;28;20041;-73
2023/09/23 08:27:53;;;;;;;4.83;2.30;;;21.50;90.00;;;;;;5048095;28;20457;-74
2023/09/23 08:30:19;;;;;;;3.30;2.13;;;23.90;77.80;;;;;;5067998;28;20036;-73
2023/09/23 08:32:45;;;;;;;6.18;2.50;;;25.30;72.10;;;;;;5049287;28;20029;-74
2023/09/23 08:35:11;;;;;;;7.28;2.25;;;25.40;70.00;;;;;;5045636;28;20033;-73
2023/09/23 08:37:37;;;;;;;5.07;1.60;;;25.70;68.10;;;;;;5050541;28;20535;-74
2023/09/23 08:40:15;;;;;;;7.88;2.03;;;26.40;67.10;;;;;;5051425;28;20037;-74
2023/09/23 08:42:41;;;;;;;3.25;1.83;;;27.20;66.40;;;;;;5042320;28;20040;-73
2023/09/23 08:45:08;;;;;;;6.03;2.10;;;27.20;66.10;;;;;;5048893;28;20041;-74
2023/09/23 08:47:36;;;;;;;6.90;2.10;;;27.30;62.40;;;;;;5037860;28;20059;-75
2023/09/23 08:50:06;;;;;;;4.68;1.73;;;28.00;62.80;;;;;;5053129;28;20025;-74
2023/09/23 08:52:32;;;;;;;3.80;1.80;;;28.40;63.90;;;;;;5045897;28;20394;-74
2023/09/23 08:55:00;;;;;;;2.55;1.90;;;28.50;61.60;;;;;;5046547;28;20028;-74
2023/09/23 08:57:26;;;;;;;10.57;1.95;;;28.70;60.30;;;;;;5038411;28;20120;-74
2023/09/23 08:59:52;;;;;;;5.22;1.70;;;29.20;61.30;;;;;;5053173;28;20674;-75
2023/09/23 09:02:25;;;;;;;4.28;1.42;;;29.60;60.50;;;;;;5047890;28;20032;-74
2023/09/23 09:04:55;;;;;;;7.18;1.50;;;29.90;58.50;;;;;;5051995;28;20032;-73
2023/09/23 09:07:39;;;;;;;3.40;1.75;;;29.60;59.00;;;;;;5053816;28;20460;-74
2023/09/23 09:10:06;;;;;;;3.75;1.48;;;29.20;58.40;;;;;;5055907;28;20045;-74
2023/09/23 09:12:32;;;;;;;3.25;1.60;;;29.10;59.50;;;;;;5050161;28;20052;-74
2023/09/23 09:14:58;;;;;;;5.30;1.52;;;29.20;58.80;;;;;;5046600;28;20037;-75
2023/09/23 09:17:23;;;;;;;3.58;1.55;;;30.10;60.50;;;;;;5043756;28;20032;-73
2023/09/23 09:19:49;;;;;;;5.82;1.42;;;30.40;57.90;;;;;;5051179;28;20130;-75
2023/09/23 09:22:16;;;;;;;;;;;30.40;57.50;;;;;;5051270;28;20039;-74
2023/09/23 09:24:43;;;;;;;6.20;1.38;;;30.70;55.60;;;;;;5045907;28;19913;-74
2023/09/23 09:27:12;;;;;;;1.98;1.52;;;31.00;56.90;;;;;;5057353;28;20029;-75
2023/09/23 09:29:40;;;;;;;1.77;1.30;;;30.80;57.40;;;;;;5051875;28;20029;-74
2023/09/23 09:32:09;;;;;;;4.03;1.40;;;30.90;57.40;;;;;;5035507;28;20695;-75
2023/09/23 09:34:43;;;;;;;2.08;1.30;;;30.30;56.00;;;;;;5041303;28;20021;-75
2023/09/23 09:37:11;;;;;;;2.88;1.48;;;30.70;57.40;;;;;;5051311;28;20397;-75
2023/09/23 09:39:55;;;;;;;3.55;1.48;;;30.80;56.40;;;;;;5047020;28;20482;-76
2023/09/23 09:42:27;;;;;;;3.70;1.35;;;29.70;57.40;;;;;;5042194;28;20082;-75
2023/09/23 09:44:55;;;;;;;1.58;1.02;;;30.00;59.30;;;;;;5066161;28;20041;-76
2023/09/23 09:47:22;;;;;;;4.45;0.85;;;28.10;59.90;;;;;;5053611;28;20023;-75
2023/09/23 09:49:52;;;;;;;3.30;1.05;;;26.90;61.90;;;;;;5046363;28;20029;-77
2023/09/23 09:52:21;;;;;;;6.82;0.93;;;24.20;66.40;;;;;;5053956;28;20136;-75
2023/09/23 09:54:52;;;;;;;1.08;0.70;;;22.80;68.40;;;;;;5049075;28;20033;-74
2023/09/23 09:57:22;;;;;;;2.30;1.15;;;22.30;68.70;;;;;;5051479;28;20397;-75
2023/09/23 09:59:50;;;;;;;5.95;1.00;;;21.90;71.80;;;;;;5034158;28;20594;-75
2023/09/23 10:02:17;;;;;;;2.47;1.17;;;21.50;71.40;;;;;;5044768;28;20647;-75
2023/09/23 10:04:49;;;;;;;2.78;1.00;;;21.40;73.30;;;;;;5039155;28;20044;-75
2023/09/23 10:07:14;;;;;;;1.83;1.02;;;21.20;72.60;;;;;;5053749;28;20032;-75
2023/09/23 10:09:53;;;;;;;2.30;0.85;;;21.40;74.00;;;;;;5048282;28;20033;-75
2023/09/23 10:12:25;;;;;;;2.17;0.73;;;20.70;71.80;;;;;;5054656;28;20125;-75
2023/09/23 10:14:54;;;;;;;3.47;0.73;;;21.20;71.60;;;;;;5038776;28;20041;-74
2023/09/23 10:17:29;;;;;;;1.30;0.90;;;21.30;73.10;;;;;;5044887;28;20032;-74
2023/09/23 10:19:56;;;;;;;1.70;0.95;;;20.90;74.20;;;;;;5050335;28;20029;-75
2023/09/23 10:22:23;;;;;;;4.35;1.33;;;20.50;75.00;;;;;;5043607;28;20494;-74
2023/09/23 10:25:15;;;;;;;4.15;1.10;;;20.40;76.10;;;;;;5047569;28;20029;-73
2023/09/23 10:27:59;;;;;;;2.90;1.08;;;20.30;77.30;;;;;;5042298;28;20045;-73
2023/09/23 10:30:26;;;;;;;4.88;1.08;;;20.10;74.30;;;;;;5039636;28;20490;-73
2023/09/23 10:32:51;;;;;;;5.65;1.05;;;19.90;76.50;;;;;;5046449;28;20482;-74
2023/09/23 10:35:26;;;;;;;3.92;1.38;;;19.80;77.10;;;;;;5052119;28;20040;-74
2023/09/23 10:37:51;;;;;;;1.40;0.95;;;19.80;77.20;;;;;;5032257;28;20509;-74
2023/09/23 10:40:19;;;;;;;2.50;0.90;;;20.10;77.50;;;;;;5052154;28;20136;-73
2023/09/23 10:42:49;;;;;;;4.20;0.90;;;20.10;78.80;;;;;;5039362;28;20067;-74
2023/09/23 10:45:17;;;;;;;2.30;0.90;;;19.90;78.00;;;;;;5043817;28;20078;-73
2023/09/23 10:47:44;;;;;;;2.53;0.73;;;19.80;78.30;;;;;;5057373;28;20047;-72
2023/09/23 10:50:10;;;;;;;3.72;0.95;;;19.90;78.70;;;;;;5043630;28;20573;-73
2023/09/23 10:52:36;;;;;;;4.25;0.88;;;19.80;78.70;;;;;;5036922;28;20068;-73
2023/09/23 10:55:02;;;;;;;;;;;19.70;78.10;;;;;;5056842;28;20041;-73
2023/09/23 10:57:27;;;;;;;2.33;0.88;;;19.30;77.00;;;;;;5064710;28;19912;-73
2023/09/23 10:59:54;;;;;;;2.30;0.80;;;19.10;79.10;;;;;;5045508;28;20089;-73
2023/09/23 11:02:22;;;;;;;10.70;1.00;;;19.30;76.90;;;;;;5047821;28;20033;-73
2023/09/23 11:04:49;;;;;;;1.17;0.80;;;19.20;77.00;;;;;;5048398;28;20506;-73
2023/09/23 11:07:16;;;;;;;3.97;1.25;;;19.20;76.40;;;;;;5053130;28;20147;-73
2023/09/23 11:09:45;;;;;;;6.15;1.63;;;19.10;78.30;;;;;;5046282;28;20075;-74
2023/09/23 11:12:16;;;;;;;3.45;1.38;;;19.00;82.40;;;;;;5052740;28;20045;-74
2023/09/23 11:14:50;;;;;;;8.95;1.02;;;18.90;84.00;;;;;;5043068;28;20078;-74
2023/09/23 11:17:27;;;;;;;8.25;1.40;;;18.90;83.80;;;;;;5048860;28;20040;-74
2023/09/23 11:19:54;;;;;;;1.92;1.10;;;18.70;85.30;;;;;;5049105;28;20033;-73
2023/09/23 11:22:25;;;;;;;2.20;1.08;;;18.70;86.70;;;;;;5061726;28;20039;-72
2023/09/23 11:24:51;;;;;;;6.00;1.20;;;19.00;83.60;;;;;;5037262;28;20017;-70
2023/09/23 11:27:18;;;;;;;3.33;1.13;;;19.00;83.00;;;;;;5066920;28;20029;-71
2023/09/23 11:29:43;;;;;;;;;;;19.30;84.50;;;;;;5043448;28;20033;-71
2023/09/23 11:32:11;;;;;;;7.82;1.17;;;19.50;82.40;;;;;;5045530;28;19978;-73
2023/09/23 11:34:37;;;;;;;1.88;0.98;;;19.70;79.10;;;;;;5039855;28;20060;-72
2023/09/23 11:37:04;;;;;;;8.53;1.40;;;19.90;78.10;;;;;;5045933;28;20563;-71
2023/09/23 11:39:35;;;;;;;7.78;1.20;;;20.00;79.50;;;;;;5041408;28;20021;-71
2023/09/23 11:42:02;;;;;;;5.30;1.23;;;20.00;80.30;;;;;;5040809;28;20093;-73
2023/09/23 11:44:28;;;;;;;5.05;1.30;;;20.10;75.00;;;;;;5050476;28;20123;-73
2023/09/23 11:46:54;;;;;;;4.28;1.00;;;20.00;74.70;;;;;;5044874;28;20091;-73
2023/09/23 11:49:20;;;;;;;4.18;1.00;;;20.00;74.90;;;;;;5047023;28;20077;-72
2023/09/23 11:51:46;;;;;;;3.42;1.02;;;20.40;76.70;;;;;;5040718;28;20064;-73
2023/09/23 11:54:12;;;;;;;1.50;1.00;;;20.50;75.50;;;;;;5050182;28;20072;-73
2023/09/23 11:56:38;;;;;;;2.70;0.80;;;20.50;75.30;;;;;;5064488;28;20449;-72
2023/09/23 11:59:04;;;;;;;3.23;1.33;;;20.10;76.20;;;;;;5050700;28;20586;-73
2023/09/23 12:01:30;;;;;;;6.35;1.00;;;20.10;76.10;;;;;;5048353;28;20300;-72
2023/09/23 12:03:59;;;;;;;6.30;0.88;;;20.10;74.30;;;;;;5052138;28;20037;-72
2023/09/23 12:06:25;;;;;;;2.30;0.95;;;19.90;76.70;;;;;;5049134;28;20017;-72
2023/09/23 12:08:51;;;;;;;6.13;1.08;;;20.10;77.80;;;;;;5055922;28;20032;-72
2023/09/23 12:11:21;;;;;;;3.40;1.20;;;20.10;78.00;;;;;;5046382;28;20048;-73
2023/09/23 12:13:47;;;;;;;1.67;0.93;;;19.80;77.20;;;;;;5044274;28;20041;-73
2023/09/23 12:16:13;;;;;;;3.30;1.08;;;19.60;76.10;;;;;;5035608;28;20033;-72
2023/09/23 12:18:39;;;;;;;8.57;1.10;;;19.80;76.70;;;;;;5041670;28;20037;-71
2023/09/23 12:21:04;;;;;;;9.43;1.13;;;20.20;76.50;;;;;;5050955;28;20037;-71
2023/09/23 12:23:32;;;;;;;4.73;0.80;;;20.70;79.70;;;;;;5051934;28;20144;-72
2023/09/23 12:25:58;;;;;;;2.58;1.27;;;20.60;75.50;;;;;;5051671;28;20033;-72
2023/09/23 12:28:24;;;;;;;3.20;1.23;;;20.30;74.50;;;;;;5044817;28;20036;-72
2023/09/23 12:30:50;;;;;;;4.57;1.10;;;19.40;75.10;;;;;;5043338;28;20025;-72
2023/09/23 12:33:15;;;;;;;2.00;1.00;;;19.30;74.40;;;;;;5043598;28;20040;-72
2023/09/23 12:35:42;;;;;;;3.43;0.90;;;19.20;76.10;;;;;;5049841;28;20366;-72
2023/09/23 12:38:08;;;;;;;9.13;1.40;;;18.80;77.40;;;;;;5055686;28;20032;-72
2023/09/23 12:40:34;;;;;;;1.70;0.90;;;18.80;79.00;;;;;;5048352;28;20480;-73
2023/09/23 12:43:00;;;;;;;7.25;1.02;;;18.60;80.10;;;;;;5049310;28;20180;-72
2023/09/23 12:45:26;;;;;;;3.60;0.80;;;18.50;80.00;;;;;;5045892;28;20025;-71
2023/09/23 12:47:52;;;;;;;3.33;0.98;;;18.50;76.60;;;;;;5052118;28;20467;-72
2023/09/23 12:50:17;;;;;;;5.20;0.90;;;18.70;78.30;;;;;;5045708;28;20089;-72